Time;durP1;ratioP1;P1;durP2;ratioP2;P2;SDS_P1;SDS_P2;PMS_P1;PMS_P2;Temp;Humidity;BMP_temperature;BMP_pressure;BME280_temperature;BME280_humidity;BME280_pressure;Samples;Min_cycle;Max_cycle;Signal;HPM_P1;HPM_P2
2023/10/21 00:02:23;;;;;;;0.40;0.40;;;;;;;;;;6269494;22;20078;-85
2023/10/21 00:05:13;;;;;;;0.30;0.30;;;;;;;;;;6271416;22;20023;-86
2023/10/21 00:07:38;;;;;;;0.30;0.30;;;;;;;;;;6246053;22;20018;-86
2023/10/21 00:10:24;;;;;;;0.30;0.30;;;;;;;;;;6264487;22;20015;-85
2023/10/21 00:13:00;;;;;;;0.30;0.30;;;;;;;;;;6269467;22;20029;-86
2023/10/21 00:15:48;;;;;;;0.38;0.38;;;;;;;;;;6293924;22;20094;-87
2023/10/21 00:18:19;;;;;;;0.32;0.32;;;;;;;;;;6282357;22;19996;-85
2023/10/21 00:21:09;;;;;;;0.35;0.35;;;;;;;;;;6277551;22;19999;-85
2023/10/21 00:23:47;;;;;;;0.40;0.40;;;;;;;;;;6281100;22;20019;-87
2023/10/21 00:26:21;;;;;;;0.30;0.30;;;;;;;;;;6280488;22;20003;-86
2023/10/21 00:28:56;;;;;;;0.40;0.40;;;;;;;;;;6283944;22;20049;-87
2023/10/21 00:31:22;;;;;;;0.30;0.30;;;;;;;;;;6293722;22;20022;-87
2023/10/21 00:33:48;;;;;;;0.30;0.30;;;;;;;;;;6268726;22;20015;-86
2023/10/21 00:36:15;;;;;;;0.30;0.30;;;;;;;;;;6305107;22;20010;-86
2023/10/21 00:38:50;;;;;;;0.20;0.20;;;;;;;;;;6269770;22;20012;-85
2023/10/21 00:41:17;;;;;;;0.30;0.30;;;;;;;;;;6321225;22;20026;-86
2023/10/21 00:43:44;;;;;;;0.30;0.30;;;;;;;;;;6270694;22;20015;-86
2023/10/21 00:46:18;;;;;;;;;;;;;;;;;;6274765;22;20011;-88
2023/10/21 00:48:51;;;;;;;0.40;0.40;;;;;;;;;;6270986;22;19996;-86
2023/10/21 00:51:45;;;;;;;0.30;0.30;;;;;;;;;;6301599;22;20492;-86
2023/10/21 00:54:16;;;;;;;0.30;0.30;;;;;;;;;;6289987;22;20015;-87
2023/10/21 00:56:42;;;;;;;0.30;0.30;;;;;;;;;;6270691;22;20011;-86
2023/10/21 00:59:08;;;;;;;0.30;0.30;;;;;;;;;;6269330;22;20063;-86
2023/10/21 01:01:38;;;;;;;0.30;0.30;;;;;;;;;;6265372;22;20021;-86
2023/10/21 01:04:06;;;;;;;0.20;0.20;;;;;;;;;;6272300;22;19996;-86
2023/10/21 01:06:32;;;;;;;0.30;0.30;;;;;;;;;;6295970;22;20015;-85
2023/10/21 01:09:03;;;;;;;0.50;0.50;;;;;;;;;;6277740;22;20045;-86
2023/10/21 01:11:29;;;;;;;0.20;0.20;;;;;;;;;;6273639;22;20007;-85
2023/10/21 01:13:56;;;;;;;0.30;0.30;;;;;;;;;;6261057;22;20025;-87
2023/10/21 01:16:22;;;;;;;0.20;0.20;;;;;;;;;;6264739;22;20051;-86
2023/10/21 01:18:48;;;;;;;0.35;0.35;;;;;;;;;;6263453;22;20021;-88
2023/10/21 01:21:16;;;;;;;0.30;0.30;;;;;;;;;;6265042;22;20022;-86
2023/10/21 01:23:46;;;;;;;0.30;0.30;;;;;;;;;;6300813;22;20026;-86
2023/10/21 01:26:16;;;;;;;0.22;0.22;;;;;;;;;;6321150;22;20031;-86
2023/10/21 01:28:42;;;;;;;0.30;0.30;;;;;;;;;;6286718;22;20043;-85
2023/10/21 01:31:08;;;;;;;0.20;0.20;;;;;;;;;;6291387;22;20473;-87
2023/10/21 01:33:34;;;;;;;0.30;0.30;;;;;;;;;;6298263;22;20086;-86
2023/10/21 01:36:00;;;;;;;0.40;0.40;;;;;;;;;;6293356;22;20022;-86
2023/10/21 01:38:26;;;;;;;0.30;0.30;;;;;;;;;;6288449;22;20022;-86
2023/10/21 01:40:52;;;;;;;0.30;0.30;;;;;;;;;;6290071;22;20090;-86
2023/10/21 01:43:18;;;;;;;0.20;0.20;;;;;;;;;;6288291;22;20049;-88
2023/10/21 01:45:44;;;;;;;0.30;0.30;;;;;;;;;;6287675;22;20349;-86
2023/10/21 01:48:10;;;;;;;0.35;0.35;;;;;;;;;;6319999;22;20062;-86
2023/10/21 01:50:39;;;;;;;0.30;0.30;;;;;;;;;;6301895;22;20016;-87
2023/10/21 01:53:05;;;;;;;0.30;0.30;;;;;;;;;;6324402;22;20088;-87
2023/10/21 01:55:33;;;;;;;0.20;0.20;;;;;;;;;;6288357;22;20446;-88
2023/10/21 01:57:59;;;;;;;0.20;0.20;;;;;;;;;;6286823;22;20022;-85
2023/10/21 02:00:25;;;;;;;0.35;0.35;;;;;;;;;;6288932;22;20011;-88
2023/10/21 02:02:54;;;;;;;0.22;0.22;;;;;;;;;;6312540;22;20019;-86
2023/10/21 02:05:21;;;;;;;0.20;0.20;;;;;;;;;;6288798;22;20384;-86
2023/10/21 02:07:50;;;;;;;0.30;0.30;;;;;;;;;;6314991;22;20018;-85
2023/10/21 02:10:20;;;;;;;0.40;0.40;;;;;;;;;;6290017;22;20069;-86
2023/10/21 02:12:46;;;;;;;0.30;0.30;;;;;;;;;;6317918;22;20018;-87
2023/10/21 02:15:18;;;;;;;0.30;0.30;;;;;;;;;;6291432;22;20048;-86
2023/10/21 02:17:48;;;;;;;0.30;0.30;;;;;;;;;;6272880;22;20015;-87
2023/10/21 02:20:17;;;;;;;0.30;0.30;;;;;;;;;;6291047;22;20019;-88
2023/10/21 02:22:44;;;;;;;0.30;0.30;;;;;;;;;;6315736;22;20106;-87
2023/10/21 02:25:11;;;;;;;0.20;0.20;;;;;;;;;;6290884;22;20048;-87
2023/10/21 02:27:37;;;;;;;0.45;0.45;;;;;;;;;;6245930;22;20049;-87
2023/10/21 02:30:04;;;;;;;0.40;0.40;;;;;;;;;;6272346;22;20053;-87
2023/10/21 02:32:30;;;;;;;0.20;0.20;;;;;;;;;;6263367;22;20022;-86
2023/10/21 02:34:57;;;;;;;0.40;0.40;;;;;;;;;;6268943;22;20055;-85
2023/10/21 02:37:23;;;;;;;0.32;0.32;;;;;;;;;;6274398;22;20068;-87
2023/10/21 02:39:49;;;;;;;0.30;0.30;;;;;;;;;;6303748;22;20018;-86
2023/10/21 02:42:20;;;;;;;0.28;0.28;;;;;;;;;;6267163;22;20011;-87
2023/10/21 02:44:51;;;;;;;0.30;0.30;;;;;;;;;;6302203;22;20015;-87
2023/10/21 02:47:17;;;;;;;0.30;0.30;;;;;;;;;;6266092;22;20018;-86
2023/10/21 02:49:43;;;;;;;0.32;0.32;;;;;;;;;;6263641;22;20029;-88
2023/10/21 02:52:10;;;;;;;0.30;0.30;;;;;;;;;;6274034;22;20007;-86
2023/10/21 02:54:39;;;;;;;0.30;0.30;;;;;;;;;;6264010;22;20098;-87
2023/10/21 02:57:12;;;;;;;0.30;0.30;;;;;;;;;;6299244;22;20012;-86
2023/10/21 02:59:40;;;;;;;0.40;0.40;;;;;;;;;;6303240;22;20019;-85
2023/10/21 03:02:09;;;;;;;0.30;0.30;;;;;;;;;;6275997;22;20519;-86
2023/10/21 03:04:35;;;;;;;0.30;0.30;;;;;;;;;;6262919;22;20015;-87
2023/10/21 03:07:02;;;;;;;0.30;0.30;;;;;;;;;;6267622;22;20015;-86
2023/10/21 03:09:28;;;;;;;0.30;0.30;;;;;;;;;;6295184;22;20065;-86
2023/10/21 03:11:54;;;;;;;0.30;0.30;;;;;;;;;;6268549;22;20016;-87
2023/10/21 03:14:20;;;;;;;0.35;0.35;;;;;;;;;;6262895;22;20018;-87
2023/10/21 03:16:48;;;;;;;0.30;0.30;;;;;;;;;;6271098;22;20047;-85
2023/10/21 03:19:18;;;;;;;0.20;0.20;;;;;;;;;;6334096;22;19999;-85
2023/10/21 03:21:45;;;;;;;0.20;0.20;;;;;;;;;;6269816;22;20015;-85
2023/10/21 03:24:27;;;;;;;0.17;0.17;;;;;;;;;;6270313;22;20023;-85
2023/10/21 03:26:54;;;;;;;0.30;0.30;;;;;;;;;;6289614;22;20015;-86
2023/10/21 03:29:31;;;;;;;0.30;0.30;;;;;;;;;;6282776;22;20027;-85
2023/10/21 03:32:01;;;;;;;0.28;0.28;;;;;;;;;;6324502;22;20037;-85
2023/10/21 03:34:27;;;;;;;0.30;0.30;;;;;;;;;;6240648;22;20101;-87
2023/10/21 03:36:53;;;;;;;0.30;0.30;;;;;;;;;;6269304;22;20025;-87
2023/10/21 03:39:21;;;;;;;0.40;0.40;;;;;;;;;;6264203;22;20043;-86
2023/10/21 03:41:48;;;;;;;0.40;0.40;;;;;;;;;;6292102;22;20022;-86
2023/10/21 03:44:20;;;;;;;0.40;0.40;;;;;;;;;;6303159;22;19999;-84
2023/10/21 03:46:46;;;;;;;0.40;0.40;;;;;;;;;;6288260;22;20016;-86
2023/10/21 03:49:12;;;;;;;0.30;0.30;;;;;;;;;;6273215;22;20015;-87
2023/10/21 03:51:39;;;;;;;0.30;0.30;;;;;;;;;;6277255;22;20015;-86
2023/10/21 03:54:05;;;;;;;0.40;0.40;;;;;;;;;;6266374;22;20328;-87
2023/10/21 03:56:31;;;;;;;0.30;0.30;;;;;;;;;;6275754;22;20026;-87
2023/10/21 03:58:57;;;;;;;0.40;0.40;;;;;;;;;;6261132;22;20019;-87
2023/10/21 04:01:23;;;;;;;0.30;0.30;;;;;;;;;;6287545;22;20354;-87
2023/10/21 04:03:49;;;;;;;0.40;0.40;;;;;;;;;;6263699;22;20026;-88
2023/10/21 04:06:17;;;;;;;0.30;0.30;;;;;;;;;;6296517;22;20003;-85
2023/10/21 04:08:47;;;;;;;0.22;0.22;;;;;;;;;;6289495;22;20048;-87
2023/10/21 04:11:21;;;;;;;0.20;0.20;;;;;;;;;;6291275;22;20027;-87
2023/10/21 04:13:47;;;;;;;0.35;0.35;;;;;;;;;;6262048;22;20068;-86
2023/10/21 04:16:13;;;;;;;0.30;0.30;;;;;;;;;;6264494;22;20008;-87
2023/10/21 04:18:46;;;;;;;0.30;0.30;;;;;;;;;;6286781;22;20015;-86
2023/10/21 04:21:12;;;;;;;0.30;0.30;;;;;;;;;;6269251;22;20097;-86
2023/10/21 04:23:38;;;;;;;0.30;0.30;;;;;;;;;;6262048;22;20015;-86
2023/10/21 04:26:09;;;;;;;0.28;0.28;;;;;;;;;;6300066;22;20015;-86
2023/10/21 04:28:35;;;;;;;0.30;0.30;;;;;;;;;;6313827;22;20050;-86
2023/10/21 04:31:02;;;;;;;0.30;0.30;;;;;;;;;;6290267;22;20020;-87
2023/10/21 04:33:35;;;;;;;0.30;0.30;;;;;;;;;;6297241;22;20039;-85
2023/10/21 04:36:01;;;;;;;0.28;0.28;;;;;;;;;;6322899;22;20015;-85
2023/10/21 04:38:27;;;;;;;0.60;0.60;;;;;;;;;;6296496;22;20022;-85
2023/10/21 04:40:58;;;;;;;0.30;0.30;;;;;;;;;;6294248;22;20019;-85
2023/10/21 04:44:03;;;;;;;0.30;0.30;;;;;;;;;;6336547;22;20018;-86
2023/10/21 04:46:31;;;;;;;0.40;0.40;;;;;;;;;;6292339;22;20046;-85
2023/10/21 04:49:00;;;;;;;0.30;0.30;;;;;;;;;;6302712;22;20015;-85
2023/10/21 04:51:31;;;;;;;0.28;0.28;;;;;;;;;;6317473;22;20104;-87
2023/10/21 04:54:03;;;;;;;0.30;0.30;;;;;;;;;;6289964;22;20015;-86
2023/10/21 04:56:29;;;;;;;0.40;0.40;;;;;;;;;;6300804;22;19999;-86
2023/10/21 04:59:02;;;;;;;0.30;0.30;;;;;;;;;;6306636;22;20033;-86
2023/10/21 05:01:27;;;;;;;0.30;0.30;;;;;;;;;;6287201;22;20015;-86
2023/10/21 05:03:53;;;;;;;0.30;0.30;;;;;;;;;;6287507;22;20041;-88
2023/10/21 05:06:21;;;;;;;0.40;0.40;;;;;;;;;;6294357;22;20015;-87
2023/10/21 05:08:47;;;;;;;0.30;0.30;;;;;;;;;;6287972;22;20026;-87
2023/10/21 05:11:13;;;;;;;0.32;0.32;;;;;;;;;;6297141;22;20072;-86
2023/10/21 05:13:40;;;;;;;0.40;0.40;;;;;;;;;;6289986;22;20043;-87
2023/10/21 05:16:06;;;;;;;0.30;0.30;;;;;;;;;;6315633;22;20023;-87
2023/10/21 05:18:32;;;;;;;0.30;0.30;;;;;;;;;;6286311;22;20034;-86
2023/10/21 05:21:07;;;;;;;0.30;0.30;;;;;;;;;;6320488;22;20026;-86
2023/10/21 05:24:03;;;;;;;0.30;0.30;;;;;;;;;;6329733;22;19999;-85
2023/10/21 05:26:41;;;;;;;0.30;0.30;;;;;;;;;;6283589;22;20015;-85
2023/10/21 05:29:08;;;;;;;0.30;0.30;;;;;;;;;;6288358;22;20030;-87
2023/10/21 05:31:34;;;;;;;0.40;0.40;;;;;;;;;;6312320;22;20027;-87
2023/10/21 05:34:00;;;;;;;0.40;0.40;;;;;;;;;;6285709;22;20254;-85
2023/10/21 05:36:26;;;;;;;0.20;0.20;;;;;;;;;;6315143;22;20011;-87
2023/10/21 05:38:53;;;;;;;0.25;0.25;;;;;;;;;;6292084;22;20021;-86
2023/10/21 05:41:31;;;;;;;0.30;0.30;;;;;;;;;;6298295;22;20010;-85
2023/10/21 05:44:10;;;;;;;0.20;0.20;;;;;;;;;;6307700;22;20012;-87
2023/10/21 05:46:36;;;;;;;0.40;0.40;;;;;;;;;;6314142;22;20019;-86
2023/10/21 05:49:02;;;;;;;0.40;0.40;;;;;;;;;;6312131;22;20019;-85
2023/10/21 05:51:29;;;;;;;0.40;0.40;;;;;;;;;;6296401;22;20342;-86
2023/10/21 05:53:57;;;;;;;0.30;0.30;;;;;;;;;;6288681;22;20011;-86
2023/10/21 05:56:26;;;;;;;0.30;0.30;;;;;;;;;;6305630;22;20019;-85
2023/10/21 05:58:58;;;;;;;0.32;0.32;;;;;;;;;;6310736;22;20042;-85
2023/10/21 06:01:24;;;;;;;0.32;0.32;;;;;;;;;;6326887;22;20023;-87
2023/10/21 06:03:50;;;;;;;0.20;0.20;;;;;;;;;;6317745;22;20026;-87
2023/10/21 06:06:22;;;;;;;0.20;0.20;;;;;;;;;;6322066;22;20041;-85
2023/10/21 06:08:54;;;;;;;0.30;0.30;;;;;;;;;;6306016;22;20015;-85
2023/10/21 06:11:20;;;;;;;0.25;0.25;;;;;;;;;;6333609;22;20029;-86
2023/10/21 06:13:48;;;;;;;0.28;0.28;;;;;;;;;;6333697;22;19995;-85
2023/10/21 06:16:33;;;;;;;0.30;0.30;;;;;;;;;;6317707;22;20011;-86
2023/10/21 06:19:01;;;;;;;0.20;0.20;;;;;;;;;;6299562;22;20041;-85
2023/10/21 06:24:50;;;;;;;0.20;0.20;;;;;;;;;;6339589;22;20014;-87
2023/10/21 06:27:20;;;;;;;0.20;0.20;;;;;;;;;;6319685;22;20042;-87
2023/10/21 06:29:46;;;;;;;0.30;0.30;;;;;;;;;;6297977;22;20022;-88
2023/10/21 06:32:12;;;;;;;0.15;0.15;;;;;;;;;;6316061;22;20011;-86
2023/10/21 06:34:39;;;;;;;0.20;0.20;;;;;;;;;;6294193;22;20015;-87
2023/10/21 06:37:06;;;;;;;0.20;0.20;;;;;;;;;;6311109;22;20015;-88
2023/10/21 06:39:35;;;;;;;0.20;0.20;;;;;;;;;;6316045;22;20106;-85
2023/10/21 06:44:37;;;;;;;0.30;0.30;;;;;;;;;;6271002;23;20028;-92
2023/10/21 06:47:03;;;;;;;0.40;0.40;;;;;;;;;;6219874;23;20012;-92
2023/10/21 06:49:29;;;;;;;0.30;0.30;;;;;;;;;;6220537;23;20008;-91
2023/10/21 06:51:56;;;;;;;0.30;0.30;;;;;;;;;;6220808;23;20019;-93
2023/10/21 06:54:22;;;;;;;0.30;0.30;;;;;;;;;;6221399;22;20007;-93
2023/10/21 06:59:24;;;;;;;0.35;0.35;;;;;;;;;;6333940;22;20004;-89
2023/10/21 07:02:00;;;;;;;0.30;0.30;;;;;;;;;;6282710;22;20038;-91
2023/10/21 07:04:27;;;;;;;0.50;0.47;;;;;;;;;;6279082;22;20042;-88
2023/10/21 07:06:53;;;;;;;0.30;0.30;;;;;;;;;;6279958;22;20033;-91
2023/10/21 07:09:19;;;;;;;0.30;0.30;;;;;;;;;;6281287;22;20015;-91
2023/10/21 07:14:21;;;;;;;0.30;0.30;;;;;;;;;;6331086;22;20027;-92
2023/10/21 07:16:47;;;;;;;0.30;0.30;;;;;;;;;;6282042;22;20063;-92
2023/10/21 07:24:25;;;;;;;0.20;0.20;;;;;;;;;;6301619;22;20122;-93
2023/10/21 07:26:51;;;;;;;0.30;0.30;;;;;;;;;;6232724;22;20043;-92
2023/10/21 07:34:30;;;;;;;0.30;0.30;;;;;;;;;;6304931;22;20023;-92
2023/10/21 07:36:57;;;;;;;0.30;0.30;;;;;;;;;;6262524;22;20020;-91
2023/10/21 07:44:34;;;;;;;0.30;0.30;;;;;;;;;;6279944;22;20023;-94
2023/10/21 07:47:00;;;;;;;0.38;0.38;;;;;;;;;;6277955;22;20044;-90
2023/10/21 07:49:26;;;;;;;0.30;0.30;;;;;;;;;;6279658;22;20019;-93
2023/10/21 07:51:56;;;;;;;0.30;0.30;;;;;;;;;;6282812;22;20055;-91
2023/10/21 07:54:49;;;;;;;0.20;0.20;;;;;;;;;;6312014;22;20033;-93
2023/10/21 07:57:15;;;;;;;0.40;0.40;;;;;;;;;;6305467;22;20023;-90
2023/10/21 07:59:44;;;;;;;0.22;0.22;;;;;;;;;;6309369;22;20031;-92
2023/10/21 08:02:11;;;;;;;0.20;0.20;;;;;;;;;;6330105;22;20412;-91
2023/10/21 08:04:37;;;;;;;0.30;0.30;;;;;;;;;;6305721;22;20015;-91
2023/10/21 08:07:04;;;;;;;0.30;0.30;;;;;;;;;;6331834;22;20046;-92
2023/10/21 08:09:30;;;;;;;0.22;0.22;;;;;;;;;;6306363;22;20327;-90
2023/10/21 08:12:00;;;;;;;0.20;0.20;;;;;;;;;;6308780;22;20046;-92
2023/10/21 08:14:30;;;;;;;0.30;0.30;;;;;;;;;;6315501;22;20026;-91
2023/10/21 08:19:32;;;;;;;0.40;0.40;;;;;;;;;;6326516;22;20007;-91
2023/10/21 08:21:58;;;;;;;0.30;0.30;;;;;;;;;;6280119;22;20019;-92
2023/10/21 08:27:00;;;;;;;0.30;0.30;;;;;;;;;;6331695;22;20026;-91
2023/10/21 08:29:26;;;;;;;0.30;0.30;;;;;;;;;;6281403;22;20070;-92
2023/10/21 08:31:57;;;;;;;0.40;0.40;;;;;;;;;;6329213;22;20003;-91
2023/10/21 08:34:24;;;;;;;0.28;0.28;;;;;;;;;;6272099;22;20027;-91
2023/10/21 08:39:35;;;;;;;0.30;0.30;;;;;;;;;;6332464;22;20023;-92
2023/10/21 08:44:41;;;;;;;0.30;0.30;;;;;;;;;;6327811;22;20035;-91
2023/10/21 08:50:03;;;;;;;0.20;0.20;;;;;;;;;;6292020;22;20252;-92
2023/10/21 08:55:05;;;;;;;0.30;0.30;;;;;;;;;;6310825;22;20030;-91
2023/10/21 08:57:32;;;;;;;0.20;0.20;;;;;;;;;;6281596;22;19999;-91
2023/10/21 09:05:10;;;;;;;0.20;0.20;;;;;;;;;;6280118;22;20015;-92
2023/10/21 09:07:44;;;;;;;0.20;0.20;;;;;;;;;;6280642;22;20029;-94
2023/10/21 09:20:51;;;;;;;0.28;0.28;;;;;;;;;;6332726;22;20007;-91
2023/10/21 09:23:18;;;;;;;0.30;0.30;;;;;;;;;;6280531;22;20019;-92
2023/10/21 09:25:56;;;;;;;0.20;0.20;;;;;;;;;;6281665;22;19999;-91
2023/10/21 09:31:05;;;;;;;0.20;0.20;;;;;;;;;;6328344;22;20050;-92
2023/10/21 09:33:32;;;;;;;0.30;0.30;;;;;;;;;;6280999;22;20071;-92
2023/10/21 09:36:07;;;;;;;0.20;0.20;;;;;;;;;;6307155;22;20016;-91
2023/10/21 09:38:51;;;;;;;0.30;0.30;;;;;;;;;;6329656;22;20027;-93
2023/10/21 09:43:53;;;;;;;0.32;0.32;;;;;;;;;;6321861;22;20016;-90
2023/10/21 09:46:20;;;;;;;0.30;0.30;;;;;;;;;;6276922;22;20019;-91
2023/10/21 09:49:03;;;;;;;0.13;0.13;;;;;;;;;;6280623;22;20068;-91
2023/10/21 09:52:12;;;;;;;0.20;0.20;;;;;;;;;;6334072;22;20015;-90
2023/10/21 09:57:18;;;;;;;0.30;0.30;;;;;;;;;;6321831;22;20039;-90
2023/10/21 09:59:46;;;;;;;0.20;0.20;;;;;;;;;;6308693;22;20020;-91
2023/10/21 10:02:12;;;;;;;0.10;0.10;;;;;;;;;;6276949;22;20019;-90
2023/10/21 10:04:39;;;;;;;0.30;0.30;;;;;;;;;;6291057;22;20101;-89
2023/10/21 10:07:09;;;;;;;0.40;0.40;;;;;;;;;;6300176;22;20011;-90
2023/10/21 10:09:36;;;;;;;0.22;0.22;;;;;;;;;;6305207;22;20020;-90
2023/10/21 10:12:07;;;;;;;0.30;0.30;;;;;;;;;;6277025;22;20013;-90
2023/10/21 10:14:34;;;;;;;0.30;0.30;;;;;;;;;;6303128;22;20011;-90
2023/10/21 10:17:00;;;;;;;0.20;0.20;;;;;;;;;;6298755;22;20019;-90
2023/10/21 10:19:42;;;;;;;0.35;0.35;;;;;;;;;;6305344;22;20047;-92
2023/10/21 10:22:19;;;;;;;0.20;0.20;;;;;;;;;;6307836;22;20049;-91
2023/10/21 10:25:05;;;;;;;0.30;0.30;;;;;;;;;;6334351;22;20037;-92
2023/10/21 10:28:12;;;;;;;0.30;0.30;;;;;;;;;;6305175;22;20027;-91
2023/10/21 10:31:10;;;;;;;0.20;0.20;;;;;;;;;;6331504;22;20045;-91
2023/10/21 10:44:02;;;;;;;0.20;0.20;;;;;;;;;;6262737;22;20018;-91
2023/10/21 11:37:32;;;;;;;0.10;0.10;;;;;;;;;;6315724;22;20038;-91
2023/10/21 11:45:17;;;;;;;0.30;0.30;;;;;;;;;;6266174;22;20027;-90
2023/10/21 12:19:45;;;;;;;0.15;0.15;;;;;;;;;;6307902;22;20019;-92
2023/10/21 12:43:57;;;;;;;0.30;0.30;;;;;;;;;;6306225;22;20007;-90
2023/10/21 12:46:35;;;;;;;0.30;0.30;;;;;;;;;;6279200;22;20015;-91
2023/10/21 12:49:07;;;;;;;0.30;0.30;;;;;;;;;;6281126;22;20404;-91
2023/10/21 13:46:15;;;;;;;0.30;0.30;;;;;;;;;;6329346;22;20031;-89
2023/10/21 13:48:42;;;;;;;0.20;0.20;;;;;;;;;;6273613;22;20011;-89
2023/10/21 13:51:14;;;;;;;0.10;0.10;;;;;;;;;;6281569;22;20019;-87
2023/10/21 13:53:40;;;;;;;0.20;0.20;;;;;;;;;;6279263;22;20023;-88
2023/10/21 13:56:09;;;;;;;0.20;0.20;;;;;;;;;;6304762;22;20015;-87
2023/10/21 13:58:49;;;;;;;0.17;0.17;;;;;;;;;;6278228;22;20013;-88
2023/10/21 14:01:19;;;;;;;0.20;0.20;;;;;;;;;;6276495;22;20029;-88
2023/10/21 14:03:46;;;;;;;0.20;0.20;;;;;;;;;;6307512;22;19999;-88
2023/10/21 14:06:19;;;;;;;0.20;0.20;;;;;;;;;;6281565;22;20030;-87
2023/10/21 14:08:48;;;;;;;0.25;0.25;;;;;;;;;;6304854;22;20023;-87
2023/10/21 14:11:17;;;;;;;0.22;0.22;;;;;;;;;;6301207;22;20004;-88
2023/10/21 14:13:46;;;;;;;0.22;0.22;;;;;;;;;;6280428;22;20076;-88
2023/10/21 14:16:12;;;;;;;0.20;0.20;;;;;;;;;;6278984;22;19999;-86
2023/10/21 14:18:43;;;;;;;0.20;0.20;;;;;;;;;;6280765;22;20018;-88
2023/10/21 14:21:38;;;;;;;0.20;0.20;;;;;;;;;;6280691;22;20422;-88
2023/10/21 14:24:10;;;;;;;0.10;0.10;;;;;;;;;;6285377;22;20026;-89
2023/10/21 14:26:58;;;;;;;0.20;0.20;;;;;;;;;;6331969;22;20011;-89
2023/10/21 14:29:25;;;;;;;0.20;0.20;;;;;;;;;;6254519;22;20054;-88
2023/10/21 14:32:08;;;;;;;0.10;0.10;;;;;;;;;;6315261;22;19999;-82
2023/10/21 14:34:59;;;;;;;0.30;0.30;;;;;;;;;;6307566;22;20011;-81
2023/10/21 14:37:25;;;;;;;0.20;0.20;;;;;;;;;;6287007;22;20015;-79
2023/10/21 14:39:58;;;;;;;0.15;0.15;;;;;;;;;;6306413;22;20043;-81
2023/10/21 14:42:28;;;;;;;0.20;0.20;;;;;;;;;;6304121;22;20022;-77
2023/10/21 14:44:55;;;;;;;0.30;0.30;;;;;;;;;;6276547;22;20015;-81
2023/10/21 14:47:26;;;;;;;0.20;0.20;;;;;;;;;;6263682;22;20042;-81
2023/10/21 14:49:53;;;;;;;0.20;0.20;;;;;;;;;;6303588;22;20022;-82
2023/10/21 14:52:27;;;;;;;0.20;0.20;;;;;;;;;;6277563;22;20025;-80
2023/10/21 14:55:14;;;;;;;0.38;0.38;;;;;;;;;;6325151;22;20015;-84
2023/10/21 14:57:42;;;;;;;0.20;0.20;;;;;;;;;;6269107;22;20011;-84
2023/10/21 15:00:15;;;;;;;0.10;0.10;;;;;;;;;;6266585;22;20462;-83
2023/10/21 15:02:45;;;;;;;0.20;0.20;;;;;;;;;;6287576;22;20358;-82
2023/10/21 15:05:11;;;;;;;0.13;0.13;;;;;;;;;;6266168;22;20015;-83
2023/10/21 15:07:42;;;;;;;0.20;0.20;;;;;;;;;;6263215;22;20019;-83
2023/10/21 15:10:15;;;;;;;0.10;0.10;;;;;;;;;;6303293;22;20135;-82
2023/10/21 15:12:42;;;;;;;0.10;0.10;;;;;;;;;;6264457;22;20026;-84
2023/10/21 15:15:23;;;;;;;0.17;0.17;;;;;;;;;;6276577;22;20042;-89
2023/10/21 15:17:50;;;;;;;0.30;0.30;;;;;;;;;;6275629;22;20062;-88
2023/10/21 15:20:18;;;;;;;0.20;0.20;;;;;;;;;;6274685;22;20023;-88
2023/10/21 15:22:46;;;;;;;0.30;0.30;;;;;;;;;;6283470;22;20045;-88
2023/10/21 15:25:17;;;;;;;0.20;0.20;;;;;;;;;;6249524;22;20019;-86
2023/10/21 15:27:46;;;;;;;0.20;0.20;;;;;;;;;;6283526;22;20023;-86
2023/10/21 15:30:21;;;;;;;0.30;0.30;;;;;;;;;;6282968;22;20067;-82
2023/10/21 15:32:51;;;;;;;0.20;0.20;;;;;;;;;;6271493;22;20469;-83
2023/10/21 15:35:22;;;;;;;0.20;0.20;;;;;;;;;;6266336;22;20016;-82
2023/10/21 15:37:50;;;;;;;0.20;0.20;;;;;;;;;;6289956;22;20041;-83
2023/10/21 15:40:21;;;;;;;0.10;0.10;;;;;;;;;;6330346;22;20019;-82
2023/10/21 15:42:57;;;;;;;0.10;0.10;;;;;;;;;;6315528;22;20450;-84
2023/10/21 15:45:23;;;;;;;0.22;0.22;;;;;;;;;;6273716;22;20030;-84
2023/10/21 15:47:49;;;;;;;0.20;0.20;;;;;;;;;;6261588;22;20026;-84
2023/10/21 15:50:16;;;;;;;0.20;0.20;;;;;;;;;;6263458;22;20011;-83
2023/10/21 15:52:47;;;;;;;0.20;0.20;;;;;;;;;;6297303;22;20076;-83
2023/10/21 15:55:29;;;;;;;0.20;0.20;;;;;;;;;;6334604;22;20055;-87
2023/10/21 15:58:01;;;;;;;0.25;0.25;;;;;;;;;;6283744;22;20029;-88
2023/10/21 16:00:37;;;;;;;0.20;0.20;;;;;;;;;;6304214;22;20016;-86
2023/10/21 16:03:19;;;;;;;0.20;0.20;;;;;;;;;;6280928;22;20029;-87
2023/10/21 16:05:58;;;;;;;0.28;0.28;;;;;;;;;;6275222;22;20022;-87
2023/10/21 16:08:24;;;;;;;0.20;0.20;;;;;;;;;;6272268;22;20034;-87
2023/10/21 16:11:10;;;;;;;0.20;0.20;;;;;;;;;;6277228;22;20010;-87
2023/10/21 16:13:36;;;;;;;0.20;0.20;;;;;;;;;;6276906;22;20083;-85
2023/10/21 16:16:03;;;;;;;0.10;0.10;;;;;;;;;;6274574;22;20043;-85
2023/10/21 16:18:32;;;;;;;0.22;0.22;;;;;;;;;;6275291;22;20066;-88
2023/10/21 16:21:01;;;;;;;0.10;0.10;;;;;;;;;;6276476;22;20019;-85
2023/10/21 16:23:30;;;;;;;0.10;0.10;;;;;;;;;;6272546;22;20015;-86
2023/10/21 16:26:00;;;;;;;0.10;0.10;;;;;;;;;;6280831;22;20027;-87
2023/10/21 16:28:45;;;;;;;0.25;0.25;;;;;;;;;;6323223;22;20018;-85
2023/10/21 16:31:13;;;;;;;0.40;0.40;;;;;;;;;;6301506;22;20046;-86
2023/10/21 16:34:03;;;;;;;0.30;0.30;;;;;;;;;;6303954;22;20090;-88
2023/10/21 16:36:32;;;;;;;0.20;0.20;;;;;;;;;;6324136;22;20038;-84
2023/10/21 16:38:58;;;;;;;0.20;0.20;;;;;;;;;;6287190;22;20450;-84
2023/10/21 16:41:26;;;;;;;0.20;0.20;;;;;;;;;;6300994;22;20016;-84
2023/10/21 16:43:56;;;;;;;0.20;0.20;;;;;;;;;;6318036;22;20474;-82
2023/10/21 16:46:23;;;;;;;0.30;0.30;;;;;;;;;;6288408;22;20058;-83
2023/10/21 16:48:50;;;;;;;0.20;0.20;;;;;;;;;;6313704;22;20063;-84
2023/10/21 16:51:22;;;;;;;0.30;0.30;;;;;;;;;;6329616;22;20015;-84
2023/10/21 16:53:50;;;;;;;0.10;0.10;;;;;;;;;;6310854;22;20022;-82
2023/10/21 16:56:16;;;;;;;0.25;0.25;;;;;;;;;;6287480;22;20015;-82
2023/10/21 16:58:42;;;;;;;0.30;0.30;;;;;;;;;;6285213;22;20022;-84
2023/10/21 17:01:08;;;;;;;0.30;0.30;;;;;;;;;;6285605;22;20019;-83
2023/10/21 17:03:36;;;;;;;0.38;0.38;;;;;;;;;;6285607;22;20526;-87
2023/10/21 17:06:15;;;;;;;0.20;0.20;;;;;;;;;;6297106;22;20015;-88
2023/10/21 17:08:41;;;;;;;0.28;0.28;;;;;;;;;;6320732;22;20027;-87
2023/10/21 17:11:07;;;;;;;0.30;0.30;;;;;;;;;;6296174;22;20011;-87
2023/10/21 17:13:42;;;;;;;0.30;0.30;;;;;;;;;;6298311;22;20011;-86
2023/10/21 17:16:11;;;;;;;0.20;0.20;;;;;;;;;;6329138;22;19999;-87
2023/10/21 17:18:38;;;;;;;0.20;0.20;;;;;;;;;;6309241;22;20019;-87
2023/10/21 17:21:08;;;;;;;0.30;0.30;;;;;;;;;;6308287;22;20019;-87
2023/10/21 17:23:39;;;;;;;0.20;0.20;;;;;;;;;;6284594;22;20003;-88
2023/10/21 17:26:46;;;;;;;0.30;0.30;;;;;;;;;;6310318;22;20019;-87
2023/10/21 17:29:53;;;;;;;0.30;0.30;;;;;;;;;;6331358;22;20019;-87
2023/10/21 17:32:22;;;;;;;0.30;0.30;;;;;;;;;;6299065;22;20049;-86
2023/10/21 17:34:48;;;;;;;0.32;0.32;;;;;;;;;;6305561;22;20450;-87
2023/10/21 17:37:17;;;;;;;0.20;0.20;;;;;;;;;;6333622;22;20018;-88
2023/10/21 17:39:55;;;;;;;0.20;0.20;;;;;;;;;;6300847;22;20022;-88
2023/10/21 17:42:21;;;;;;;0.20;0.20;;;;;;;;;;6306338;22;20034;-86
2023/10/21 17:45:06;;;;;;;0.20;0.20;;;;;;;;;;6300714;22;20041;-88
2023/10/21 17:47:36;;;;;;;0.20;0.20;;;;;;;;;;6302672;22;20055;-87
2023/10/21 17:50:09;;;;;;;0.30;0.30;;;;;;;;;;6311510;22;20027;-88
2023/10/21 17:52:40;;;;;;;0.20;0.20;;;;;;;;;;6309921;22;20019;-88
2023/10/21 17:55:09;;;;;;;0.20;0.20;;;;;;;;;;6282709;22;20009;-86
2023/10/21 17:57:37;;;;;;;0.30;0.30;;;;;;;;;;6300313;22;20011;-88
2023/10/21 18:00:19;;;;;;;0.20;0.20;;;;;;;;;;6307734;22;20023;-88
2023/10/21 18:02:59;;;;;;;0.10;0.10;;;;;;;;;;6335104;22;20070;-87
2023/10/21 18:05:57;;;;;;;0.30;0.30;;;;;;;;;;6313149;22;20053;-87
2023/10/21 18:08:50;;;;;;;0.13;0.13;;;;;;;;;;6322514;22;20030;-86
2023/10/21 18:11:26;;;;;;;0.25;0.25;;;;;;;;;;6330015;22;20042;-86
2023/10/21 18:13:55;;;;;;;0.20;0.20;;;;;;;;;;6300390;22;20019;-86
2023/10/21 18:16:21;;;;;;;0.20;0.20;;;;;;;;;;6293399;22;20062;-87
2023/10/21 18:18:51;;;;;;;0.20;0.20;;;;;;;;;;6306880;22;20019;-85
2023/10/21 18:21:26;;;;;;;0.30;0.30;;;;;;;;;;6303690;22;20354;-85
2023/10/21 18:23:55;;;;;;;0.20;0.20;;;;;;;;;;6332661;22;20015;-85
2023/10/21 18:26:56;;;;;;;0.20;0.20;;;;;;;;;;6319026;22;20030;-85
2023/10/21 18:29:22;;;;;;;0.20;0.20;;;;;;;;;;6269448;22;20011;-87
2023/10/21 18:31:48;;;;;;;0.20;0.20;;;;;;;;;;6298262;22;20015;-85
2023/10/21 18:34:23;;;;;;;0.20;0.20;;;;;;;;;;6301176;22;20022;-85
2023/10/21 18:36:49;;;;;;;0.30;0.30;;;;;;;;;;6275815;22;20015;-87
2023/10/21 18:39:25;;;;;;;0.30;0.30;;;;;;;;;;6271224;22;20021;-87
2023/10/21 18:41:55;;;;;;;0.20;0.20;;;;;;;;;;6256941;22;20006;-87
2023/10/21 18:44:31;;;;;;;0.30;0.30;;;;;;;;;;6305926;22;20023;-87
2023/10/21 18:46:57;;;;;;;0.20;0.20;;;;;;;;;;6277167;22;20093;-87
2023/10/21 18:49:24;;;;;;;0.20;0.20;;;;;;;;;;6283047;22;20030;-85
2023/10/21 18:51:55;;;;;;;0.22;0.22;;;;;;;;;;6260386;22;20011;-86
2023/10/21 18:54:38;;;;;;;0.30;0.30;;;;;;;;;;6336001;22;19999;-86
2023/10/21 18:57:04;;;;;;;0.20;0.20;;;;;;;;;;6265712;22;20019;-86
2023/10/21 18:59:41;;;;;;;0.30;0.30;;;;;;;;;;6301883;22;20024;-86
2023/10/21 19:02:15;;;;;;;0.20;0.20;;;;;;;;;;6278759;22;20134;-87
2023/10/21 19:04:44;;;;;;;0.22;0.22;;;;;;;;;;6274940;22;20000;-86
2023/10/21 19:07:11;;;;;;;0.30;0.30;;;;;;;;;;6272461;22;20100;-86